This is the latest recevied weather packets stored in our database for station/object HA5KNF-10. If no packets are shown the sender has not sent any weather packets the latest 10 day(s).
| Time | Temp. | Humidity | Pressure | Rain* | Wind** | Luminosity | Snow |
|---|---|---|---|---|---|---|---|
| 1777591140 | 11.67° C | 36% | 1013.8 hPa | - | - | - | - |
| 1777587600 | 12.22° C | 36% | 1013.7 hPa | - | - | - | - |
| 1777580514 | 13.33° C | 35% | 1013.2 hPa | - | - | - | - |
| 1777576974 | 13.89° C | 35% | 1012.7 hPa | - | - | - | - |
| 1777573434 | 14.44° C | 34% | 1012.2 hPa | - | - | - | - |
| 1777569894 | 15° C | 33% | 1011.9 hPa | - | - | - | - |
| 1777566354 | 16.11° C | 33% | 1011.8 hPa | - | - | - | - |
| 1777562814 | 16.11° C | 33% | 1011.8 hPa | - | - | - | - |
| 1777559273 | 16.11° C | 34% | 1012 hPa | - | - | - | - |
| 1777555732 | 15.56° C | 34% | 1012.5 hPa | - | - | - | - |
| 1777552192 | 15° C | 35% | 1013.1 hPa | - | - | - | - |
| 1777548652 | 14.44° C | 36% | 1013.6 hPa | - | - | - | - |
| 1777545112 | 13.33° C | 36% | 1014.2 hPa | - | - | - | - |
| 1777541572 | 12.78° C | 37% | 1014.5 hPa | - | - | - | - |
| 1777538032 | 11.67° C | 35% | 1014.9 hPa | - | - | - | - |
| 1777534492 | 11.11° C | 35% | 1014.9 hPa | - | - | - | - |
| 1777530951 | 11.11° C | 35% | 1014.6 hPa | - | - | - | - |
| 1777527412 | 11.11° C | 35% | 1014.2 hPa | - | - | - | - |
| 1777523871 | 11.67° C | 35% | 1014.1 hPa | - | - | - | - |
| 1777520331 | 11.67° C | 34% | 1013.7 hPa | - | - | - | - |
| 1777516791 | 11.67° C | 34% | 1013.4 hPa | - | - | - | - |
| 1777513251 | 12.22° C | 34% | 1013.1 hPa | - | - | - | - |
| 1777509711 | 12.78° C | 34% | 1012.7 hPa | - | - | - | - |
| 1777506171 | 12.78° C | 33% | 1012.6 hPa | - | - | - | - |
| 1777502630 | 13.33° C | 33% | 1012.2 hPa | - | - | - | - |
* Rain since midnight (hover to see other rain measurements)
** Current wind speed in m/s (hover to see current wind gust speed)